Station info - map view · info · telemetry · weather · raw · status · beacons · messages · bulletins · browse · moving · my account
Callsign, ship name or locator: Clear       
It is possible to search using wildcards (*?) after a prefix. Example: OH*
APRS station KD0BHI-9 - show graphs
Map loading...
Comment: 5W HT, mobilinkd TNC, aprsdroid.org
Location: 41°42.99' N 83°41.17' W - locator EN81DR71PX - show map - static map
1.4 miles East bearing 97° from Sylvania, Lucas County, Ohio, United States [?]
4.5 miles Southwest bearing 221° from Lambertville, Monroe County, Michigan, United States
7.7 miles Northwest bearing 298° from Toledo, Lucas County, Ohio, United States
53.7 miles Southwest bearing 218° from Detroit, Wayne County, Michigan, United States
Last position: 2017-04-03 21:44:36 EDT (21d 22h37m ago)
2017-04-03 21:44:36 EDT local time at Sylvania, United States [?]
Altitude: 531 ft
Course: 266°
Speed: 4 MPH
Device: Open Source: APRSdroid (app, Android)
Last path: KD0BHI-9>APDR13 via WIDE1-1,qAr,K8XG-10 (good)
Positions stored: 5917
Other SSIDs: KD0BHI KD0BHI-1
Stations near current position of KD0BHI-9 - show more
callsign distance last heard - EDT      callsign distance last heard - EDT
KDUH2.1 miles 50°2017-04-02 16:08:56 W6LDS-72.7 miles 114°2017-04-17 17:58:15
K8XG-72.8 miles 162°2017-04-25 14:22:05 K8XG-103.7 miles 179°2017-04-25 20:14:27
K8RKS4.1 miles 107°2017-04-25 20:17:37 K8XG-95.4 miles 270°2017-04-23 15:54:12
W8MAL-95.5 miles 138°2017-04-23 06:51:13 EW71506.3 miles 179°2017-04-25 20:21:22
K8XG-17.5 miles 233°2017-04-23 14:44:17 WB8YFL-17.9 miles 196°2017-04-25 20:14:01
WB8YFL7.9 miles 196°2017-04-23 09:50:51 WB8YFL-98.1 miles 195°2017-04-25 15:06:35
N8IR-118.3 miles 187°2017-04-25 20:22:12 N8AVR-98.4 miles 180°2017-04-25 15:52:33
N8ZAK8.7 miles 121°2017-04-03 16:59:45 W8HHF B9.0 miles 120°2017-04-25 20:21:36
W8HHF-B9.0 miles 120°2017-04-25 20:20:20 W8HHF-C9.0 miles 120°2017-04-25 20:21:11
W8HHF C9.0 miles 120°2017-04-25 20:21:20 WB8YFL-29.0 miles 210°2017-04-24 17:14:00
Stations which heard KD0BHI-9 directly on radio –
callsign pkts first heard - EDT last heard longest (tx => rx) longest at - EDT
K8SCH-10 1 2017-04-03 14:41:45 2017-04-03 14:41:45 EM78QV > EM79RA 10.0 miles 20° 2017-04-03 14:41:45
K8TIH 31 2017-04-03 17:56:13 2017-04-03 21:32:04 EN81EE > EN81EJ 14.4 miles 1° 2017-04-03 17:56:13
NT4UX-3 31 2017-03-31 20:38:06 2017-04-03 11:29:51 EM66PK > EM66NG 17.4 miles 221° 2017-04-03 11:29:51
W1ARN-1 43 2017-03-31 20:04:57 2017-04-03 12:04:49 EM67TA > EM66SL 37.6 miles 189° 2017-04-03 12:04:49
KA0AZS 5 2017-04-03 15:44:41 2017-04-03 15:54:45 EM79VT > EM79VQ 7.7 miles 190° 2017-04-03 15:54:45
WA8ZWJ-1 2 2017-04-03 16:35:27 2017-04-03 16:39:41 EN70VB > EM79TV 11.0 miles 212° 2017-04-03 16:39:41
W8BLV 7 2017-04-03 15:24:44 2017-04-03 15:40:42 EM79TI > EM79TM 11.7 miles 7° 2017-04-03 15:24:44
KB9GYO-3 2 2017-04-03 14:50:30 2017-04-03 15:26:10 EM79TI > EM79ND 32.5 miles 239° 2017-04-03 15:26:10
WC8EMA 3 2017-04-03 14:52:34 2017-04-03 15:23:31 EM79RB > EM79WL 36.9 miles 38° 2017-04-03 14:52:34
KI6SZ-2 3 2017-04-03 16:26:12 2017-04-03 16:28:11 EM79VU > EM79WT 6.0 miles 112° 2017-04-03 16:28:11
N8OZB 3 2017-04-03 16:55:13 2017-04-03 17:09:12 EN70VN > EN80BJ 20.4 miles 123° 2017-04-03 17:09:12
KJ4NES-3 14 2017-03-31 20:01:58 2017-04-03 12:11:26 EM66RR > EM67RA 20.1 miles 0° 2017-03-31 20:15:42
W8MRG-3 9 2017-04-03 14:56:33 2017-04-03 15:21:49 EM79SH > EM79SD 12.0 miles 188° 2017-04-03 15:21:49
W8VFR-9 4 2017-04-03 15:21:16 2017-04-03 15:40:13 EM79SH > EM79QR 30.3 miles 342° 2017-04-03 15:21:16
W8VFR-5 2 2017-04-03 15:33:39 2017-04-03 15:39:13 EM79UN > EM79OM 26.8 miles 262° 2017-04-03 15:39:13
W8VFR-4 2 2017-04-03 15:42:40 2017-04-03 15:49:16 EM79VP > EM79TR 12.0 miles 314° 2017-04-03 15:42:40
WB8YFL-1 3 2017-04-03 21:34:55 2017-04-03 21:37:54 EN81DN > EN81DO 3.1 miles 321° 2017-04-03 21:34:55
W8FTV-1 2 2017-04-03 17:00:11 2017-04-03 17:08:11 EN70VN > EN80DI 26.6 miles 117° 2017-04-03 17:08:11
N9CVA-10 12 2017-04-03 13:22:24 2017-04-03 13:49:53 EM77DX > EM78BI 26.1 miles 343° 2017-04-03 13:22:24
KA8ZGE-10 21 2017-04-03 17:03:12 2017-04-03 17:36:22 EN70VK > EN70WS 21.7 miles 1° 2017-04-03 17:03:12
KD8LXB-10 1 2017-04-03 15:38:13 2017-04-03 15:38:13 EM79UN > EM79QR 21.1 miles 309° 2017-04-03 15:38:13
WM8W-1 3 2017-04-03 17:41:10 2017-04-03 17:46:45 EN81DA > EN80EU 12.3 miles 174° 2017-04-03 17:46:45
K8XG-10 5 2017-04-03 21:38:55 2017-04-03 21:44:36 EN81DR > EN81DP 3.7 miles 179° 2017-04-03 21:44:36
W8VFR-8 2 2017-04-03 16:25:51 2017-04-03 16:44:25 EN70VD > EM79QW 26.0 miles 237° 2017-04-03 16:44:25
KC8HQX-3 6 2017-04-03 14:56:47 2017-04-03 15:03:20 EM79RD > EM79RC 3.7 miles 200° 2017-04-03 15:03:20
KY4KY-3 4 2017-04-03 13:17:52 2017-04-03 13:26:37 EM77DV > EM78DB 10.7 miles 347° 2017-04-03 13:17:52
KD8QFM-3 1 2017-04-03 16:31:10 2017-04-03 16:31:10 EM79VV > EM79VV 0.9 miles 210° 2017-04-03 16:31:10
K8EMA-4 8 2017-04-03 16:49:48 2017-04-03 16:57:18 EN70WI > EN70WG 5.1 miles 184° 2017-04-03 16:57:18
W8MCB-10 18 2017-04-03 17:17:07 2017-04-03 17:52:05 EN70WQ > EN71XA 22.0 miles 9° 2017-04-03 17:17:07
KE0JMK-1 13 2017-04-03 15:43:40 2017-04-03 16:25:37 EM79VP > EM79WU 15.3 miles 17° 2017-04-03 15:43:40
KF4ERV-10 5 2017-04-03 13:33:07 2017-04-03 13:40:24 EM78EF > EM78DF 4.3 miles 261° 2017-04-03 13:40:24

Only position packets which were originated by the station are shown here. The range statistics show some extra long hops, because some digipeaters do not correctly add themselves to the digipeater path. Please check the raw packets.
About this site
This page shows real-time information collected from the Automatic Position Reporting System Internet network (APRS-IS). APRS is used by amateur (ham) radio operators to transmit real-time position information, weather data, telemetry and messages over the radio. A vehicle equipped with a GPS receiver, a VHF transmitter or HF transceiver and a small computer device called a tracker transmits it's location, speed and course in a small data packet, which is then received by a nearby iGate receiving site which forwards the packet on the Internet. Systems connected to the Internet can send information on the APRS-IS without a radio transmitter, or collect and display information transmitted anywhere in the world.
FAQ · Blog · Discussion group · Linking to aprs.fi · AIS sites · Service status · Database statistics · Advertising on aprs.fi · Technical details · API · Change log · Planned changes · Credits and thanks · Terms Of Service · iPhone/iPad APRS